createdAt,value
2022-09-23T00:01:17.112Z,9.09
2022-09-23T00:03:45.701Z,9.01
2022-09-23T00:06:18.192Z,9.13
2022-09-23T00:08:45.271Z,9.04
2022-09-23T00:11:15.422Z,8.98
2022-09-23T00:13:44.506Z,9.14
2022-09-23T00:16:17.589Z,9.23
2022-09-23T00:18:44.861Z,9.25
2022-09-23T00:21:14.110Z,9.29
2022-09-23T00:23:43.022Z,9.27
2022-09-23T00:26:13.085Z,9.22
2022-09-23T00:28:40.838Z,9.01
2022-09-23T00:31:10.955Z,9.20
2022-09-23T00:33:38.142Z,9.05
2022-09-23T00:36:07.636Z,8.85
2022-09-23T00:38:34.622Z,8.88
2022-09-23T00:41:01.609Z,8.65
2022-09-23T00:43:48.095Z,8.54
2022-09-23T00:46:25.353Z,8.41
2022-09-23T00:48:58.530Z,8.45
2022-09-23T00:51:32.714Z,8.41
2022-09-23T00:54:00.612Z,8.51
2022-09-23T00:56:27.667Z,8.49
2022-09-23T00:58:54.687Z,8.47
2022-09-23T01:01:21.792Z,8.41
2022-09-23T01:03:50.305Z,8.49
2022-09-23T01:06:17.734Z,8.31
2022-09-23T01:08:47.489Z,8.17
2022-09-23T01:11:51.597Z,7.96
2022-09-23T01:15:02.186Z,7.91
2022-09-23T01:17:44.113Z,8.03
2022-09-23T01:20:57.219Z,7.81
2022-09-23T01:24:21.301Z,7.84
2022-09-23T01:27:30.947Z,7.69
2022-09-23T01:30:42.450Z,7.80
2022-09-23T01:33:30.371Z,7.89
2022-09-23T01:36:27.645Z,7.71
2022-09-23T01:39:08.006Z,7.76
2022-09-23T01:42:03.279Z,7.77
2022-09-23T01:44:43.559Z,7.77
2022-09-23T01:47:17.934Z,7.74
2022-09-23T01:50:01.609Z,7.88
2022-09-23T01:52:43.557Z,8.01
2022-09-23T01:55:22.510Z,7.92
2022-09-23T01:58:03.948Z,7.90
2022-09-23T02:00:35.153Z,7.90
2022-09-23T02:03:27.669Z,8.04
2022-09-23T02:06:03.555Z,8.14
2022-09-23T02:08:35.775Z,8.26
2022-09-23T02:11:16.441Z,8.19
2022-09-23T02:14:02.881Z,8.19
2022-09-23T02:16:39.633Z,8.01
2022-09-23T02:19:27.268Z,8.02
2022-09-23T02:22:20.633Z,8.17
2022-09-23T02:24:49.452Z,8.17
2022-09-23T02:28:01.511Z,7.98
2022-09-23T02:30:36.538Z,7.84
2022-09-23T02:33:11.990Z,7.75
2022-09-23T02:36:46.327Z,7.53
2022-09-23T02:39:15.088Z,7.59
2022-09-23T02:42:06.431Z,7.56
2022-09-23T02:44:34.251Z,7.64
2022-09-23T02:47:01.370Z,7.59
2022-09-23T02:49:30.439Z,7.52
2022-09-23T02:52:00.159Z,7.28
2022-09-23T02:54:28.979Z,7.14
2022-09-23T02:56:57.471Z,7.12
2022-09-23T02:59:24.888Z,7.00
2022-09-23T03:02:28.229Z,6.97
2022-09-23T03:05:27.182Z,7.09
2022-09-23T03:08:28.303Z,7.12
2022-09-23T03:11:17.225Z,7.04
2022-09-23T03:14:25.717Z,7.17
2022-09-23T03:17:07.647Z,7.22
2022-09-23T03:19:47.957Z,7.23
2022-09-23T03:22:31.936Z,7.46
2022-09-23T03:25:07.308Z,7.36
2022-09-23T03:27:36.723Z,7.28
2022-09-23T03:30:05.084Z,7.22
2022-09-23T03:32:35.020Z,7.10
2022-09-23T03:35:04.462Z,7.01
2022-09-23T03:37:36.696Z,6.92
2022-09-23T03:40:17.971Z,7.17
2022-09-23T03:42:49.151Z,7.11
2022-09-23T03:45:22.839Z,6.92
2022-09-23T03:47:49.767Z,6.93
2022-09-23T03:50:20.331Z,6.72
2022-09-23T03:52:48.316Z,6.65
2022-09-23T03:55:16.541Z,6.61
2022-09-23T03:57:44.905Z,6.51
2022-09-23T04:00:13.494Z,6.43
2022-09-23T04:02:41.178Z,6.49
2022-09-23T04:05:09.106Z,6.46
2022-09-23T04:07:36.198Z,6.40
2022-09-23T04:10:05.069Z,6.43
2022-09-23T04:12:32.030Z,6.51
2022-09-23T04:14:59.017Z,6.46
2022-09-23T04:17:25.983Z,6.37
2022-09-23T04:19:53.059Z,6.22
2022-09-23T04:22:20.013Z,6.15
2022-09-23T04:24:47.101Z,6.02
2022-09-23T04:27:14.038Z,5.97
2022-09-23T04:29:40.981Z,5.94
2022-09-23T04:32:07.928Z,5.99
2022-09-23T04:34:34.815Z,6.28
2022-09-23T04:37:02.551Z,6.30
2022-09-23T04:39:29.556Z,6.32
2022-09-23T04:41:56.557Z,6.31
2022-09-23T04:44:23.771Z,6.40
2022-09-23T04:46:52.094Z,6.35
2022-09-23T04:49:19.565Z,6.42
2022-09-23T04:51:46.576Z,6.46
2022-09-23T04:54:15.191Z,6.55
2022-09-23T04:56:45.427Z,6.62
2022-09-23T04:59:12.525Z,6.61
2022-09-23T05:01:39.607Z,6.64
2022-09-23T05:04:10.417Z,6.83
2022-09-23T05:06:37.581Z,7.01
2022-09-23T05:09:07.725Z,7.10
2022-09-23T05:11:35.189Z,7.11
2022-09-23T05:14:02.184Z,7.30
2022-09-23T05:16:30.175Z,7.43
2022-09-23T05:18:58.360Z,7.41
2022-09-23T05:21:29.254Z,7.56
2022-09-23T05:23:59.836Z,7.54
2022-09-23T05:26:32.189Z,7.57
2022-09-23T05:29:00.211Z,7.64
2022-09-23T05:31:29.188Z,7.66
2022-09-23T05:34:02.239Z,7.71
2022-09-23T05:36:35.603Z,7.77
2022-09-23T05:39:05.332Z,7.84
2022-09-23T05:41:34.612Z,7.93
2022-09-23T05:44:02.225Z,8.07
2022-09-23T05:46:31.028Z,8.19
2022-09-23T05:49:03.540Z,8.24
2022-09-23T05:51:38.645Z,8.39
2022-09-23T05:54:07.026Z,8.51
2022-09-23T05:56:38.477Z,8.73
2022-09-23T05:59:07.373Z,8.80
2022-09-23T06:01:36.824Z,9.10
2022-09-23T06:04:06.213Z,9.05
2022-09-23T06:06:42.159Z,9.02
2022-09-23T06:09:13.586Z,9.14
2022-09-23T06:11:41.300Z,9.18
2022-09-23T06:14:13.714Z,9.44
2022-09-23T06:16:40.837Z,9.37
2022-09-23T06:19:07.887Z,9.30
2022-09-23T06:21:37.947Z,9.52
2022-09-23T06:24:06.888Z,9.66
2022-09-23T06:26:35.517Z,9.92
2022-09-23T06:29:04.616Z,9.90
2022-09-23T06:31:32.389Z,9.86
2022-09-23T06:34:09.643Z,9.71
2022-09-23T06:36:43.878Z,9.93
2022-09-23T06:39:13.481Z,9.89
2022-09-23T06:41:40.747Z,9.77
2022-09-23T06:44:12.789Z,9.95
2022-09-23T06:46:40.796Z,9.99
2022-09-23T06:49:08.654Z,9.96
2022-09-23T06:51:35.614Z,9.87
2022-09-23T06:54:02.979Z,9.93
2022-09-23T06:56:33.484Z,9.93
2022-09-23T06:59:03.466Z,10.01
2022-09-23T07:01:30.565Z,10.00
2022-09-23T07:03:57.879Z,10.15
2022-09-23T07:06:24.976Z,10.14
2022-09-23T07:08:53.600Z,10.12
2022-09-23T07:11:23.612Z,10.09
2022-09-23T07:13:51.226Z,10.17
2022-09-23T07:16:18.497Z,10.16
2022-09-23T07:18:45.967Z,10.17
2022-09-23T07:21:16.004Z,10.39
2022-09-23T07:23:48.172Z,10.38
2022-09-23T07:26:15.986Z,10.53
2022-09-23T07:28:43.564Z,10.53
2022-09-23T07:31:13.365Z,10.56
2022-09-23T07:33:44.437Z,10.74
2022-09-23T07:36:14.723Z,10.77
2022-09-23T07:38:45.414Z,10.83
2022-09-23T07:41:17.640Z,11.02
2022-09-23T07:43:47.442Z,11.17
2022-09-23T07:46:17.774Z,11.41
2022-09-23T07:48:46.130Z,11.32
2022-09-23T07:51:19.302Z,11.36
2022-09-23T07:53:53.991Z,11.35
2022-09-23T07:56:24.380Z,11.33
2022-09-23T07:59:00.538Z,11.44
2022-09-23T08:01:36.455Z,11.64
2022-09-23T08:04:08.808Z,11.54
2022-09-23T08:06:37.202Z,11.67
2022-09-23T08:09:04.810Z,11.92
2022-09-23T08:11:31.953Z,12.02
2022-09-23T08:13:59.391Z,12.13
2022-09-23T08:16:27.131Z,12.11
2022-09-23T08:18:54.640Z,12.25
2022-09-23T08:21:22.846Z,12.30
2022-09-23T08:23:50.245Z,12.31
2022-09-23T08:26:21.579Z,12.62
2022-09-23T08:28:49.466Z,12.58
2022-09-23T08:31:17.074Z,12.57
2022-09-23T08:33:44.645Z,12.40
2022-09-23T08:36:11.649Z,12.25
2022-09-23T08:38:38.701Z,12.55
2022-09-23T08:41:33.688Z,12.64
2022-09-23T08:44:19.558Z,12.59
2022-09-23T08:47:23.456Z,12.44
2022-09-23T08:50:01.862Z,12.43
2022-09-23T08:52:34.873Z,12.82
2022-09-23T08:55:03.802Z,13.29
2022-09-23T08:57:40.221Z,13.14
2022-09-23T09:00:08.042Z,13.10
2022-09-23T09:02:36.871Z,13.04
2022-09-23T09:05:09.414Z,13.14
2022-09-23T09:07:40.357Z,13.30
2022-09-23T09:10:28.935Z,13.63
2022-09-23T09:13:10.195Z,13.72
2022-09-23T09:15:43.490Z,13.78
2022-09-23T09:18:21.012Z,13.64
2022-09-23T09:21:14.683Z,13.92
2022-09-23T09:24:00.481Z,14.13
2022-09-23T09:26:30.430Z,13.78
2022-09-23T09:29:36.185Z,13.53
2022-09-23T09:32:36.402Z,13.57
2022-09-23T09:35:17.352Z,13.78
2022-09-23T09:37:47.930Z,13.88
2022-09-23T09:40:17.497Z,13.88
2022-09-23T09:42:49.959Z,14.23
2022-09-23T09:45:59.365Z,14.53
2022-09-23T09:48:53.858Z,14.66
2022-09-23T09:51:23.278Z,14.53
2022-09-23T09:53:53.830Z,14.51
2022-09-23T09:56:27.650Z,14.40
2022-09-23T09:59:08.627Z,14.42
2022-09-23T10:01:36.174Z,14.92
2022-09-23T10:04:20.417Z,15.48
2022-09-23T10:07:27.852Z,15.35
2022-09-23T10:09:58.354Z,15.30
2022-09-23T10:12:44.198Z,15.40
2022-09-23T10:15:33.351Z,15.81
2022-09-23T10:18:02.328Z,15.86
2022-09-23T10:20:39.231Z,15.35
2022-09-23T10:23:08.536Z,14.98
2022-09-23T10:25:36.758Z,15.26
2022-09-23T10:28:53.052Z,15.69
2022-09-23T10:31:26.929Z,16.16
2022-09-23T10:33:57.655Z,16.24
2022-09-23T10:36:25.167Z,16.00
2022-09-23T10:39:36.631Z,15.87
2022-09-23T10:43:01.307Z,15.93
2022-09-23T10:45:58.230Z,16.19
2022-09-23T10:49:10.310Z,16.86
2022-09-23T10:52:31.449Z,16.95
2022-09-23T10:55:11.804Z,17.22
2022-09-23T10:58:17.793Z,17.71
2022-09-23T11:01:12.872Z,18.00
2022-09-23T11:07:54.852Z,18.21
2022-09-23T11:33:14.350Z,19.78
2022-09-23T11:36:02.842Z,19.36
2022-09-23T11:38:47.723Z,19.13
2022-09-23T11:41:29.824Z,19.56
2022-09-23T11:44:04.544Z,19.93
2022-09-23T11:46:38.325Z,19.99
2022-09-23T11:49:17.188Z,19.91
2022-09-23T11:52:13.293Z,20.04
2022-09-23T11:54:47.044Z,19.62
2022-09-23T11:57:41.969Z,19.72
2022-09-23T12:00:24.669Z,19.01
2022-09-23T12:03:18.611Z,18.60
2022-09-23T12:05:51.626Z,18.79
2022-09-23T12:08:30.086Z,19.56
2022-09-23T12:11:21.899Z,20.33
2022-09-23T12:13:57.149Z,20.17
2022-09-23T12:16:57.121Z,19.67
2022-09-23T12:20:05.780Z,19.61
2022-09-23T12:23:07.774Z,20.17
2022-09-23T12:25:48.799Z,20.71
2022-09-23T12:28:23.238Z,20.17
2022-09-23T12:30:53.458Z,19.67
2022-09-23T12:33:29.053Z,19.24
2022-09-23T12:36:28.348Z,18.85
2022-09-23T12:39:35.705Z,18.54
2022-09-23T12:42:06.401Z,18.73
2022-09-23T12:44:42.048Z,19.24
2022-09-23T12:47:38.533Z,19.69
2022-09-23T12:50:44.002Z,20.58
2022-09-23T12:53:56.109Z,20.69
2022-09-23T12:56:28.789Z,20.33
2022-09-23T12:59:20.612Z,19.83
2022-09-23T13:01:47.981Z,19.81
2022-09-23T13:05:02.584Z,20.01
2022-09-23T13:07:34.305Z,20.17
2022-09-23T13:10:09.235Z,19.63
2022-09-23T13:12:39.933Z,19.38
2022-09-23T13:15:18.362Z,19.23
2022-09-23T13:17:45.566Z,19.29
2022-09-23T13:20:42.071Z,18.98
2022-09-23T13:23:30.527Z,19.15
2022-09-23T13:26:00.780Z,19.57
2022-09-23T13:28:44.875Z,19.89
2022-09-23T13:31:16.855Z,19.82
2022-09-23T13:34:04.926Z,19.80
2022-09-23T13:36:44.524Z,19.73
2022-09-23T13:39:23.883Z,19.48
2022-09-23T13:41:54.151Z,19.69
2022-09-23T13:44:21.915Z,19.79
2022-09-23T13:46:52.660Z,19.59
2022-09-23T13:49:25.994Z,19.27
2022-09-23T13:51:54.330Z,19.15
2022-09-23T13:54:33.624Z,19.57
2022-09-23T13:57:00.755Z,19.97
2022-09-23T13:59:30.512Z,20.34
2022-09-23T14:02:17.032Z,20.61
2022-09-23T14:04:45.024Z,20.98
2022-09-23T14:07:17.000Z,20.65
2022-09-23T14:09:47.782Z,20.41
2022-09-23T14:12:15.896Z,20.46
2022-09-23T14:14:43.600Z,20.61
2022-09-23T14:17:18.870Z,21.12
2022-09-23T14:19:47.282Z,21.67
2022-09-23T14:22:28.538Z,22.28
2022-09-23T14:24:57.857Z,22.55
2022-09-23T14:27:31.002Z,22.56
2022-09-23T14:29:58.687Z,22.75
2022-09-23T14:32:28.902Z,23.18
2022-09-23T14:35:16.624Z,23.67
2022-09-23T14:38:04.533Z,23.85
2022-09-23T14:40:34.406Z,24.16
2022-09-23T14:43:28.387Z,24.32
2022-09-23T14:45:58.085Z,23.88
2022-09-23T14:48:28.886Z,24.08
2022-09-23T14:50:59.380Z,24.37
2022-09-23T14:53:48.871Z,24.05
2022-09-23T14:56:19.548Z,23.33
2022-09-23T14:58:58.334Z,23.08
2022-09-23T15:01:39.378Z,24.51
2022-09-23T15:04:18.569Z,26.79
2022-09-23T15:06:51.050Z,28.46
2022-09-23T15:09:23.953Z,29.57
2022-09-23T15:12:01.775Z,30.29
2022-09-23T15:14:38.467Z,30.94
2022-09-23T15:17:15.610Z,31.24
2022-09-23T15:19:42.883Z,31.31
2022-09-23T15:22:10.312Z,31.67
2022-09-23T15:24:43.819Z,32.05
2022-09-23T15:27:32.470Z,32.05
2022-09-23T15:30:18.202Z,32.28
2022-09-23T15:32:46.268Z,32.37
2022-09-23T15:35:15.937Z,32.52
2022-09-23T15:37:43.925Z,32.60
2022-09-23T15:40:32.967Z,32.43
2022-09-23T15:43:02.705Z,31.24
2022-09-23T15:45:40.424Z,29.93
2022-09-23T15:48:12.076Z,28.75
2022-09-23T15:50:41.577Z,28.36
2022-09-23T15:53:21.983Z,27.73
2022-09-23T15:55:51.768Z,26.38
2022-09-23T15:58:23.664Z,25.15
2022-09-23T16:00:56.365Z,24.27
2022-09-23T16:03:30.945Z,23.41
2022-09-23T16:06:03.407Z,22.77
2022-09-23T16:08:33.299Z,22.29
2022-09-23T16:11:00.615Z,22.02
2022-09-23T16:13:27.689Z,21.21
2022-09-23T16:15:54.661Z,20.31
2022-09-23T16:18:21.733Z,19.53
2022-09-23T16:20:50.388Z,18.83
2022-09-23T16:23:35.897Z,18.36
2022-09-23T16:26:34.843Z,17.73
2022-09-23T16:29:02.555Z,17.44
2022-09-23T16:31:32.963Z,17.18
2022-09-23T16:34:02.798Z,17.00
2022-09-23T16:36:35.976Z,16.87
2022-09-23T16:39:05.818Z,16.77
2022-09-23T16:41:33.104Z,16.70
2022-09-23T16:44:01.817Z,16.62
2022-09-23T16:46:30.008Z,16.55
2022-09-23T16:48:58.284Z,16.47
2022-09-23T16:51:31.081Z,16.37
2022-09-23T16:53:59.519Z,16.22
2022-09-23T16:56:29.419Z,16.06
2022-09-23T16:58:57.121Z,15.87
2022-09-23T17:01:45.149Z,15.69
2022-09-23T17:04:13.594Z,15.47
2022-09-23T17:06:52.076Z,15.30
2022-09-23T17:09:21.167Z,15.16
2022-09-23T17:12:30.587Z,15.03
2022-09-23T17:14:57.548Z,14.86
2022-09-23T17:17:24.637Z,14.68
2022-09-23T17:19:51.673Z,14.56
2022-09-23T17:22:18.575Z,14.45
2022-09-23T17:24:45.733Z,14.31
2022-09-23T17:27:12.768Z,14.25
2022-09-23T17:29:39.789Z,14.21
2022-09-23T17:32:08.698Z,14.13
2022-09-23T17:34:35.655Z,14.07
2022-09-23T17:37:02.801Z,13.97
2022-09-23T17:39:29.829Z,13.82
2022-09-23T17:41:58.705Z,13.65
2022-09-23T17:44:25.732Z,13.53
2022-09-23T17:46:52.742Z,13.41
2022-09-23T17:49:20.468Z,13.28
2022-09-23T17:51:47.428Z,13.17
2022-09-23T17:54:15.217Z,13.04
2022-09-23T17:56:42.925Z,12.92
2022-09-23T17:59:12.789Z,12.79
2022-09-23T18:01:39.994Z,12.66
2022-09-23T18:04:07.250Z,12.52
2022-09-23T18:06:37.150Z,12.44
2022-09-23T18:09:07.226Z,12.41
2022-09-23T18:11:39.803Z,12.37
2022-09-23T18:14:13.449Z,12.32
2022-09-23T18:16:42.464Z,12.21
2022-09-23T18:19:12.580Z,12.12
2022-09-23T18:21:42.488Z,12.09
2022-09-23T18:27:00.003Z,11.93
2022-09-23T18:29:27.268Z,11.83
2022-09-23T18:31:54.608Z,11.77
2022-09-23T18:34:22.001Z,11.71
2022-09-23T18:36:48.997Z,11.62
2022-09-23T18:39:16.076Z,11.57
2022-09-23T18:41:43.283Z,11.51
2022-09-23T18:44:10.338Z,11.45
2022-09-23T18:46:37.382Z,11.43
2022-09-23T18:49:23.588Z,11.43
2022-09-23T18:51:56.037Z,11.27
2022-09-23T18:54:24.943Z,11.18
2022-09-23T18:56:54.623Z,11.07
2022-09-23T18:59:25.328Z,10.97
2022-09-23T19:01:55.629Z,10.91
2022-09-23T19:04:24.733Z,10.82
2022-09-23T19:06:52.070Z,10.76
2022-09-23T19:09:19.371Z,10.73
2022-09-23T19:11:46.783Z,10.74
2022-09-23T19:14:13.975Z,10.66
2022-09-23T19:16:41.770Z,10.65
2022-09-23T19:19:09.835Z,10.54
2022-09-23T19:21:37.379Z,10.46
2022-09-23T19:24:07.332Z,10.39
2022-09-23T19:26:39.361Z,10.36
2022-09-23T19:29:08.564Z,10.33
2022-09-23T19:31:40.963Z,10.31
2022-09-23T19:34:13.201Z,10.28
2022-09-23T19:36:43.052Z,10.27
2022-09-23T19:39:27.819Z,10.22
2022-09-23T19:41:59.146Z,10.17
2022-09-23T19:44:27.123Z,10.13
2022-09-23T19:46:56.742Z,10.13
2022-09-23T19:49:25.129Z,10.10
2022-09-23T19:51:56.064Z,10.12
2022-09-23T19:54:26.238Z,10.13
2022-09-23T19:56:53.245Z,10.16
2022-09-23T19:59:20.308Z,10.16
2022-09-23T20:01:50.365Z,10.14
2022-09-23T20:04:17.605Z,10.08
2022-09-23T20:06:46.148Z,9.97
2022-09-23T20:09:13.195Z,9.89
2022-09-23T20:11:43.037Z,9.84
2022-09-23T20:14:10.518Z,9.81
2022-09-23T20:16:40.605Z,9.77
2022-09-23T20:19:07.673Z,9.79
2022-09-23T20:21:35.547Z,9.77
2022-09-23T20:24:05.842Z,9.72
2022-09-23T20:26:51.410Z,9.67
2022-09-23T20:29:18.491Z,9.63
2022-09-23T20:31:45.532Z,9.61
2022-09-23T20:34:12.790Z,9.61
2022-09-23T20:36:41.472Z,9.58
2022-09-23T20:39:10.116Z,9.57
2022-09-23T20:41:38.552Z,9.66
2022-09-23T20:44:09.559Z,9.61
2022-09-23T20:46:36.710Z,9.52
2022-09-23T20:49:04.464Z,9.51
2022-09-23T20:51:33.597Z,9.43
2022-09-23T20:54:01.066Z,9.40
2022-09-23T20:56:29.294Z,9.39
2022-09-23T20:59:04.110Z,9.37
2022-09-23T21:01:37.178Z,9.39
2022-09-23T21:04:06.021Z,9.39
2022-09-23T21:06:35.435Z,9.40
2022-09-23T21:09:03.174Z,9.43
2022-09-23T21:11:30.134Z,9.57
2022-09-23T21:13:58.870Z,9.52
2022-09-23T21:16:26.033Z,9.47
2022-09-23T21:18:53.134Z,9.48
2022-09-23T21:21:22.416Z,9.47
2022-09-23T21:23:50.538Z,9.47
2022-09-23T21:26:25.506Z,9.48
2022-09-23T21:28:55.582Z,9.46
2022-09-23T21:31:36.788Z,9.47
2022-09-23T21:34:08.892Z,9.49
2022-09-23T21:36:41.849Z,9.50
2022-09-23T21:39:10.646Z,9.57
2022-09-23T21:41:38.526Z,9.79
2022-09-23T21:44:06.766Z,9.79
2022-09-23T21:46:35.386Z,9.89
2022-09-23T21:49:03.966Z,9.78
2022-09-23T21:51:41.149Z,9.50
2022-09-23T21:54:14.323Z,9.27
2022-09-23T21:56:42.028Z,9.10
2022-09-23T21:59:09.274Z,8.93
2022-09-23T22:01:39.508Z,8.84
2022-09-23T22:04:13.406Z,8.82
2022-09-23T22:06:40.687Z,8.90
2022-09-23T22:09:12.040Z,8.92
2022-09-23T22:11:58.143Z,8.91
2022-09-23T22:14:26.209Z,8.96
2022-09-23T22:16:57.672Z,9.04
2022-09-23T22:19:27.169Z,9.09
2022-09-23T22:21:56.128Z,9.08
2022-09-23T22:24:23.371Z,9.03
2022-09-23T22:26:50.567Z,8.97
2022-09-23T22:29:36.486Z,8.94
2022-09-23T22:32:24.249Z,8.97
2022-09-23T22:34:52.408Z,9.04
2022-09-23T22:37:22.167Z,9.11
2022-09-23T22:39:49.142Z,9.14
2022-09-23T22:42:16.401Z,9.16
2022-09-23T22:44:43.367Z,9.14
2022-09-23T22:47:10.714Z,9.10
2022-09-23T22:49:37.748Z,9.10
2022-09-23T22:52:08.105Z,9.07
2022-09-23T22:54:35.807Z,8.98
2022-09-23T22:57:07.436Z,8.92
2022-09-23T22:59:35.110Z,8.87
2022-09-23T23:02:03.184Z,8.85
2022-09-23T23:04:31.211Z,8.86
2022-09-23T23:06:59.003Z,8.84
2022-09-23T23:09:26.267Z,8.82
2022-09-23T23:11:53.222Z,8.79
2022-09-23T23:14:20.270Z,8.77
2022-09-23T23:16:47.665Z,8.73
2022-09-23T23:19:17.376Z,8.67
2022-09-23T23:21:45.726Z,8.60
2022-09-23T23:24:23.557Z,8.57
2022-09-23T23:26:51.466Z,8.56
2022-09-23T23:29:21.101Z,8.53
2022-09-23T23:31:48.725Z,8.52
2022-09-23T23:34:18.232Z,8.49
2022-09-23T23:36:46.568Z,8.47
2022-09-23T23:39:14.501Z,8.48
2022-09-23T23:41:41.830Z,8.48
2022-09-23T23:44:08.890Z,8.46
2022-09-23T23:46:37.559Z,8.39
2022-09-23T23:49:04.797Z,8.34
2022-09-23T23:51:31.763Z,8.31
2022-09-23T23:53:59.227Z,8.30
2022-09-23T23:56:27.106Z,8.30
2022-09-23T23:58:55.949Z,8.31
